Talpa, New Mexico
Current Conditions -  °F | °C
As of 4:15 AM on Wednesday 26 Nov 2014 (Local Time) from KSKX Reporting Station
Clear Clear  
Wind Chill:   Ceiling: Unl
Heat Index: 14°   Visibility: 10mi
Dew Point:   Wind: 8mph
Humidity: 73%   Direction: 10°N
Pressure: 30.29"   Gusts: NA
Location:  36.2692°N, 105.543°W
Report Text: KSKX 261115Z AUTO 01007KT 10SM CLR M10/M14 A3029 RMK AO1
Loading
Personal Weather Stations






























Interactive Weather Map New forecast layout! Learn more

10-Day Weather Forecast

Advertisements
Track Severe Weather on mobile